Aérodrome :
LOGIN :

S'inscrire | Disclaimer

   EN    FR    IT 

 










Légende :    VFR   VFR Marginal   IFR   IFR Intensif   IFR Très Intensif
Visi : 
Plafond : 
>= 8 km
>= 3000ft
5 à 8 km
1000 à 3000 ft
1500m à 5 km
500 à 1000 ft
800 à 1500m
200 à 500 ft
< 800m
< 200 ft
Symboles :   Orages  Brouillard  Fortes neiges  Fortes précipitations  Vent > 20 kt
SIGMETs :   Divers  Orages  Givrage  Turbulence  Onde Orograph.  Cendres Volcan.







- Altitude de l'aérodrome : 290 ft
- Code IATA : LAI
- Voir les cartes d'approche


LFRO - Lannion

DERNIER METAR :
  • 170830Z AUTO 14005KT 0650 R29/1000U FG VV/// 11/11 Q1018 BECMG 6000 NSW SCT012 BKN038

METARs EXPIRÉS :
  • 170800Z AUTO 14006KT 0450 R29/0600N FG VV/// 11/10 Q1018 BECMG 6000 NSW SCT012 BKN038
  • 170730Z AUTO 15006KT 0500 R29/0650N FG VV/// 10/10 Q1018 BECMG 6000 NSW SCT012 BKN038
  • 170700Z AUTO 14005KT 0400 R29/0550N FG VV/// 10/10 Q1018 TEMPO 1200 BR
  • 170630Z AUTO 15006KT 0750 0700 R29/0800D FG VV/// 10/09 Q1018 TEMPO 4000 BR OVC005

TAF AMD TAF LFRO
Valide du 17 à 06h jusqu'au 18 à 06h UTC


170651Z 1706/1806 15005KT 0600 FG VV///
BECMG 1708/1710 6000 NSW SCT012 BKN038
PROB30
TEMPO 1800/1806 3000 BR
BECMG 1803/1806 03012KT
Pas de NOTAMs connus pour ce terrain.



MET'MAP, la Météo Aéronautique d'un coup d'oeil ! - Copyright ORBIFLY Décembre 2007 - Disclaimer

ORBIFLY MET'MAP TEAM :

Programmation & Développement : Alexandra Zaïnal
Conception & Développement : Baudouin d'Aumeries
Co-Programmation & Développement : Marc-Olivier Méhu
Soutien technique & logistique : Manuel Goepfert

Contact : metmap@orbifly.com




SOURCES & CREDITS :

   NOAA